sensor_id;sensor_type;location;lat;lon;timestamp;temperature;humidity
14585;DHT22;7379;51.506;11.876;2022-08-16T00:01:48;23.60;64.20
14585;DHT22;7379;51.506;11.876;2022-08-16T00:04:15;23.60;64.20
14585;DHT22;7379;51.506;11.876;2022-08-16T00:06:42;23.60;64.30
14585;DHT22;7379;51.506;11.876;2022-08-16T00:09:09;23.60;64.30
14585;DHT22;7379;51.506;11.876;2022-08-16T00:11:36;23.60;64.40
14585;DHT22;7379;51.506;11.876;2022-08-16T00:14:08;23.60;64.40
14585;DHT22;7379;51.506;11.876;2022-08-16T00:16:35;23.60;64.40
14585;DHT22;7379;51.506;11.876;2022-08-16T00:19:04;23.60;64.50
14585;DHT22;7379;51.506;11.876;2022-08-16T00:21:32;23.50;64.40
14585;DHT22;7379;51.506;11.876;2022-08-16T00:23:59;23.50;64.40
14585;DHT22;7379;51.506;11.876;2022-08-16T00:26:26;23.50;64.40
14585;DHT22;7379;51.506;11.876;2022-08-16T00:28:53;23.50;64.40
14585;DHT22;7379;51.506;11.876;2022-08-16T00:31:19;23.50;64.50
14585;DHT22;7379;51.506;11.876;2022-08-16T00:33:46;23.50;64.50
14585;DHT22;7379;51.506;11.876;2022-08-16T00:36:14;23.50;64.60
14585;DHT22;7379;51.506;11.876;2022-08-16T00:38:41;23.40;64.50
14585;DHT22;7379;51.506;11.876;2022-08-16T00:41:08;23.40;64.60
14585;DHT22;7379;51.506;11.876;2022-08-16T00:43:35;23.40;64.60
14585;DHT22;7379;51.506;11.876;2022-08-16T00:46:10;23.40;64.60
14585;DHT22;7379;51.506;11.876;2022-08-16T00:48:37;23.40;64.60
14585;DHT22;7379;51.506;11.876;2022-08-16T00:51:05;23.40;64.60
14585;DHT22;7379;51.506;11.876;2022-08-16T00:53:33;23.40;64.70
14585;DHT22;7379;51.506;11.876;2022-08-16T00:56:04;23.40;64.70
14585;DHT22;7379;51.506;11.876;2022-08-16T00:58:33;23.40;64.70
14585;DHT22;7379;51.506;11.876;2022-08-16T01:01:00;23.40;64.80
14585;DHT22;7379;51.506;11.876;2022-08-16T01:03:27;23.40;64.80
14585;DHT22;7379;51.506;11.876;2022-08-16T01:05:55;23.30;64.70
14585;DHT22;7379;51.506;11.876;2022-08-16T01:08:23;23.30;64.70
14585;DHT22;7379;51.506;11.876;2022-08-16T01:10:53;23.30;64.70
14585;DHT22;7379;51.506;11.876;2022-08-16T01:13:21;23.30;64.80
14585;DHT22;7379;51.506;11.876;2022-08-16T01:15:53;23.30;64.80
14585;DHT22;7379;51.506;11.876;2022-08-16T01:18:22;23.30;64.90
14585;DHT22;7379;51.506;11.876;2022-08-16T01:20:54;23.30;64.80
14585;DHT22;7379;51.506;11.876;2022-08-16T01:23:28;23.30;64.90
14585;DHT22;7379;51.506;11.876;2022-08-16T01:25:58;23.30;65.00
14585;DHT22;7379;51.506;11.876;2022-08-16T01:28:26;23.20;64.80
14585;DHT22;7379;51.506;11.876;2022-08-16T01:30:56;23.30;64.90
14585;DHT22;7379;51.506;11.876;2022-08-16T01:33:23;23.20;64.90
14585;DHT22;7379;51.506;11.876;2022-08-16T01:35:53;23.20;64.90
14585;DHT22;7379;51.506;11.876;2022-08-16T01:38:22;23.20;64.90
14585;DHT22;7379;51.506;11.876;2022-08-16T01:40:53;23.20;65.00
14585;DHT22;7379;51.506;11.876;2022-08-16T01:43:22;23.20;64.90
14585;DHT22;7379;51.506;11.876;2022-08-16T01:45:53;23.20;65.00
14585;DHT22;7379;51.506;11.876;2022-08-16T01:48:20;23.20;65.00
14585;DHT22;7379;51.506;11.876;2022-08-16T01:50:48;23.20;65.00
14585;DHT22;7379;51.506;11.876;2022-08-16T01:53:17;23.10;64.90
14585;DHT22;7379;51.506;11.876;2022-08-16T01:55:43;23.10;64.90
14585;DHT22;7379;51.506;11.876;2022-08-16T01:58:11;23.10;65.00
14585;DHT22;7379;51.506;11.876;2022-08-16T02:00:40;23.10;64.90
14585;DHT22;7379;51.506;11.876;2022-08-16T02:03:07;23.10;65.70
14585;DHT22;7379;51.506;11.876;2022-08-16T02:05:34;23.10;64.90
14585;DHT22;7379;51.506;11.876;2022-08-16T02:08:02;23.10;64.90
14585;DHT22;7379;51.506;11.876;2022-08-16T02:10:29;23.00;64.80
14585;DHT22;7379;51.506;11.876;2022-08-16T02:12:57;23.00;64.70
14585;DHT22;7379;51.506;11.876;2022-08-16T02:15:26;23.00;64.80
14585;DHT22;7379;51.506;11.876;2022-08-16T02:17:56;23.00;64.80
14585;DHT22;7379;51.506;11.876;2022-08-16T02:20:23;23.00;64.80
14585;DHT22;7379;51.506;11.876;2022-08-16T02:22:50;23.00;64.80
14585;DHT22;7379;51.506;11.876;2022-08-16T02:25:17;23.00;64.90
14585;DHT22;7379;51.506;11.876;2022-08-16T02:27:45;23.00;64.90
14585;DHT22;7379;51.506;11.876;2022-08-16T02:30:17;23.00;64.90
14585;DHT22;7379;51.506;11.876;2022-08-16T02:32:44;22.90;64.80
14585;DHT22;7379;51.506;11.876;2022-08-16T02:35:12;22.90;64.70
14585;DHT22;7379;51.506;11.876;2022-08-16T02:37:39;22.90;64.70
14585;DHT22;7379;51.506;11.876;2022-08-16T02:40:07;22.90;64.70
14585;DHT22;7379;51.506;11.876;2022-08-16T02:42:34;22.90;64.80
14585;DHT22;7379;51.506;11.876;2022-08-16T02:45:01;22.90;64.80
14585;DHT22;7379;51.506;11.876;2022-08-16T02:47:29;22.90;64.80
14585;DHT22;7379;51.506;11.876;2022-08-16T02:49:56;22.90;64.90
14585;DHT22;7379;51.506;11.876;2022-08-16T02:52:24;22.80;64.80
14585;DHT22;7379;51.506;11.876;2022-08-16T02:54:51;22.80;64.80
14585;DHT22;7379;51.506;11.876;2022-08-16T02:57:18;22.80;64.70
14585;DHT22;7379;51.506;11.876;2022-08-16T02:59:45;22.80;64.80
14585;DHT22;7379;51.506;11.876;2022-08-16T03:02:12;22.80;64.80
14585;DHT22;7379;51.506;11.876;2022-08-16T03:04:39;22.80;64.80
14585;DHT22;7379;51.506;11.876;2022-08-16T03:07:06;22.80;64.80
14585;DHT22;7379;51.506;11.876;2022-08-16T03:09:35;22.80;64.80
14585;DHT22;7379;51.506;11.876;2022-08-16T03:12:04;22.70;64.80
14585;DHT22;7379;51.506;11.876;2022-08-16T03:14:31;22.70;64.80
14585;DHT22;7379;51.506;11.876;2022-08-16T03:16:59;22.70;64.70
14585;DHT22;7379;51.506;11.876;2022-08-16T03:19:26;22.70;64.80
14585;DHT22;7379;51.506;11.876;2022-08-16T03:21:53;22.70;64.80
14585;DHT22;7379;51.506;11.876;2022-08-16T03:24:20;22.70;64.80
14585;DHT22;7379;51.506;11.876;2022-08-16T03:26:48;22.70;64.80
14585;DHT22;7379;51.506;11.876;2022-08-16T03:29:16;22.60;64.70
14585;DHT22;7379;51.506;11.876;2022-08-16T03:31:43;22.60;64.70
14585;DHT22;7379;51.506;11.876;2022-08-16T03:34:09;22.60;64.70
14585;DHT22;7379;51.506;11.876;2022-08-16T03:36:36;22.60;64.70
14585;DHT22;7379;51.506;11.876;2022-08-16T03:39:03;22.60;64.70
14585;DHT22;7379;51.506;11.876;2022-08-16T03:41:30;22.60;64.70
14585;DHT22;7379;51.506;11.876;2022-08-16T03:43:58;22.60;64.80
14585;DHT22;7379;51.506;11.876;2022-08-16T03:46:25;22.60;64.80
14585;DHT22;7379;51.506;11.876;2022-08-16T03:48:52;22.60;64.80
14585;DHT22;7379;51.506;11.876;2022-08-16T03:51:20;22.60;64.70
14585;DHT22;7379;51.506;11.876;2022-08-16T03:53:46;22.50;64.60
14585;DHT22;7379;51.506;11.876;2022-08-16T03:56:13;22.50;64.70
14585;DHT22;7379;51.506;11.876;2022-08-16T03:58:40;22.50;64.60
14585;DHT22;7379;51.506;11.876;2022-08-16T04:01:08;22.50;64.70
14585;DHT22;7379;51.506;11.876;2022-08-16T04:03:36;22.50;64.70
14585;DHT22;7379;51.506;11.876;2022-08-16T04:06:03;22.50;64.70
14585;DHT22;7379;51.506;11.876;2022-08-16T04:08:30;22.50;64.70
14585;DHT22;7379;51.506;11.876;2022-08-16T04:10:57;22.50;64.60
14585;DHT22;7379;51.506;11.876;2022-08-16T04:13:24;22.40;64.50
14585;DHT22;7379;51.506;11.876;2022-08-16T04:15:51;22.40;64.50
14585;DHT22;7379;51.506;11.876;2022-08-16T04:18:19;22.40;64.50
14585;DHT22;7379;51.506;11.876;2022-08-16T04:20:48;22.40;64.50
14585;DHT22;7379;51.506;11.876;2022-08-16T04:23:15;22.40;64.50
14585;DHT22;7379;51.506;11.876;2022-08-16T04:25:42;22.40;64.50
14585;DHT22;7379;51.506;11.876;2022-08-16T04:28:09;22.40;64.50
14585;DHT22;7379;51.506;11.876;2022-08-16T04:30:36;22.40;64.50
14585;DHT22;7379;51.506;11.876;2022-08-16T04:33:04;22.40;64.50
14585;DHT22;7379;51.506;11.876;2022-08-16T04:35:33;22.30;65.20
14585;DHT22;7379;51.506;11.876;2022-08-16T04:38:02;22.30;64.40
14585;DHT22;7379;51.506;11.876;2022-08-16T04:40:29;22.30;64.40
14585;DHT22;7379;51.506;11.876;2022-08-16T04:42:56;22.30;64.40
14585;DHT22;7379;51.506;11.876;2022-08-16T04:45:26;22.30;64.40
14585;DHT22;7379;51.506;11.876;2022-08-16T04:47:53;22.30;64.30
14585;DHT22;7379;51.506;11.876;2022-08-16T04:50:21;22.30;64.30
14585;DHT22;7379;51.506;11.876;2022-08-16T04:52:50;22.30;64.40
14585;DHT22;7379;51.506;11.876;2022-08-16T04:55:20;22.20;64.30
14585;DHT22;7379;51.506;11.876;2022-08-16T04:57:49;22.30;64.40
14585;DHT22;7379;51.506;11.876;2022-08-16T05:00:19;22.20;64.20
14585;DHT22;7379;51.506;11.876;2022-08-16T05:02:48;22.20;64.30
14585;DHT22;7379;51.506;11.876;2022-08-16T05:05:16;22.20;64.20
14585;DHT22;7379;51.506;11.876;2022-08-16T05:07:43;22.20;65.00
14585;DHT22;7379;51.506;11.876;2022-08-16T05:10:11;22.20;64.30
14585;DHT22;7379;51.506;11.876;2022-08-16T05:12:38;22.20;64.30
14585;DHT22;7379;51.506;11.876;2022-08-16T05:15:06;22.20;64.20
14585;DHT22;7379;51.506;11.876;2022-08-16T05:17:33;22.20;64.30
14585;DHT22;7379;51.506;11.876;2022-08-16T05:20:00;22.20;64.20
14585;DHT22;7379;51.506;11.876;2022-08-16T05:22:27;22.20;64.20
14585;DHT22;7379;51.506;11.876;2022-08-16T05:24:54;22.10;64.10
14585;DHT22;7379;51.506;11.876;2022-08-16T05:27:23;22.10;64.10
14585;DHT22;7379;51.506;11.876;2022-08-16T05:29:49;22.10;64.10
14585;DHT22;7379;51.506;11.876;2022-08-16T05:32:16;22.10;64.00
14585;DHT22;7379;51.506;11.876;2022-08-16T05:34:43;22.10;64.10
14585;DHT22;7379;51.506;11.876;2022-08-16T05:37:10;22.10;64.10
14585;DHT22;7379;51.506;11.876;2022-08-16T05:39:36;22.10;64.10
14585;DHT22;7379;51.506;11.876;2022-08-16T05:42:04;22.10;64.10
14585;DHT22;7379;51.506;11.876;2022-08-16T05:44:32;22.10;64.10
14585;DHT22;7379;51.506;11.876;2022-08-16T05:46:59;22.10;64.10
14585;DHT22;7379;51.506;11.876;2022-08-16T05:49:28;22.10;64.20
14585;DHT22;7379;51.506;11.876;2022-08-16T05:51:55;22.10;64.10
14585;DHT22;7379;51.506;11.876;2022-08-16T05:54:25;22.10;64.10
14585;DHT22;7379;51.506;11.876;2022-08-16T05:56:53;22.10;64.10
14585;DHT22;7379;51.506;11.876;2022-08-16T05:59:20;22.00;64.10
14585;DHT22;7379;51.506;11.876;2022-08-16T06:01:48;22.00;64.10
14585;DHT22;7379;51.506;11.876;2022-08-16T06:04:17;22.00;64.10
14585;DHT22;7379;51.506;11.876;2022-08-16T06:06:44;22.00;64.10
14585;DHT22;7379;51.506;11.876;2022-08-16T06:09:11;22.00;64.20
14585;DHT22;7379;51.506;11.876;2022-08-16T06:11:38;22.00;64.10
14585;DHT22;7379;51.506;11.876;2022-08-16T06:14:05;22.00;64.20
14585;DHT22;7379;51.506;11.876;2022-08-16T06:16:32;22.00;64.10
14585;DHT22;7379;51.506;11.876;2022-08-16T06:19:01;22.00;64.10
14585;DHT22;7379;51.506;11.876;2022-08-16T06:21:28;22.00;64.20
14585;DHT22;7379;51.506;11.876;2022-08-16T06:23:55;22.00;64.20
14585;DHT22;7379;51.506;11.876;2022-08-16T06:26:22;22.00;64.30
14585;DHT22;7379;51.506;11.876;2022-08-16T06:28:49;22.00;64.20
14585;DHT22;7379;51.506;11.876;2022-08-16T06:31:16;22.00;64.20
14585;DHT22;7379;51.506;11.876;2022-08-16T06:33:43;22.00;64.20
14585;DHT22;7379;51.506;11.876;2022-08-16T06:36:12;22.00;64.20
14585;DHT22;7379;51.506;11.876;2022-08-16T06:38:39;22.00;64.20
14585;DHT22;7379;51.506;11.876;2022-08-16T06:41:08;22.00;64.20
14585;DHT22;7379;51.506;11.876;2022-08-16T06:43:36;22.00;65.00
14585;DHT22;7379;51.506;11.876;2022-08-16T06:46:05;22.00;64.20
14585;DHT22;7379;51.506;11.876;2022-08-16T06:48:34;22.00;64.20
14585;DHT22;7379;51.506;11.876;2022-08-16T06:51:03;22.00;64.20
14585;DHT22;7379;51.506;11.876;2022-08-16T06:53:31;22.00;64.20
14585;DHT22;7379;51.506;11.876;2022-08-16T06:55:59;22.00;64.20
14585;DHT22;7379;51.506;11.876;2022-08-16T06:58:31;22.00;64.10
14585;DHT22;7379;51.506;11.876;2022-08-16T07:00:58;22.00;64.20
14585;DHT22;7379;51.506;11.876;2022-08-16T07:03:25;22.00;64.20
14585;DHT22;7379;51.506;11.876;2022-08-16T07:05:52;22.00;64.20
14585;DHT22;7379;51.506;11.876;2022-08-16T07:08:21;22.00;64.10
14585;DHT22;7379;51.506;11.876;2022-08-16T07:10:50;22.00;64.20
14585;DHT22;7379;51.506;11.876;2022-08-16T07:13:17;22.00;64.20
14585;DHT22;7379;51.506;11.876;2022-08-16T07:15:45;22.00;64.20
14585;DHT22;7379;51.506;11.876;2022-08-16T07:18:14;22.00;64.20
14585;DHT22;7379;51.506;11.876;2022-08-16T07:20:42;22.00;64.20
14585;DHT22;7379;51.506;11.876;2022-08-16T07:23:09;22.00;64.20
14585;DHT22;7379;51.506;11.876;2022-08-16T07:25:36;22.00;64.10
14585;DHT22;7379;51.506;11.876;2022-08-16T07:28:04;22.00;64.20
14585;DHT22;7379;51.506;11.876;2022-08-16T07:30:32;22.00;64.10
14585;DHT22;7379;51.506;11.876;2022-08-16T07:32:59;22.00;64.10
14585;DHT22;7379;51.506;11.876;2022-08-16T07:35:26;22.00;64.10
14585;DHT22;7379;51.506;11.876;2022-08-16T07:37:53;22.00;64.20
14585;DHT22;7379;51.506;11.876;2022-08-16T07:40:20;22.00;64.20
14585;DHT22;7379;51.506;11.876;2022-08-16T07:42:47;22.00;64.20
14585;DHT22;7379;51.506;11.876;2022-08-16T07:45:15;22.00;64.10
14585;DHT22;7379;51.506;11.876;2022-08-16T07:47:43;22.00;64.10
14585;DHT22;7379;51.506;11.876;2022-08-16T07:50:10;22.00;64.10
14585;DHT22;7379;51.506;11.876;2022-08-16T07:52:38;22.00;64.10
14585;DHT22;7379;51.506;11.876;2022-08-16T07:55:06;22.00;64.10
14585;DHT22;7379;51.506;11.876;2022-08-16T07:57:33;22.00;64.00
14585;DHT22;7379;51.506;11.876;2022-08-16T08:00:00;22.00;64.00
14585;DHT22;7379;51.506;11.876;2022-08-16T08:02:28;22.00;64.00
14585;DHT22;7379;51.506;11.876;2022-08-16T08:04:55;22.10;64.00
14585;DHT22;7379;51.506;11.876;2022-08-16T08:07:22;22.10;64.00
14585;DHT22;7379;51.506;11.876;2022-08-16T08:09:49;22.10;64.00
14585;DHT22;7379;51.506;11.876;2022-08-16T08:12:16;22.10;64.10
14585;DHT22;7379;51.506;11.876;2022-08-16T08:14:44;22.10;64.20
14585;DHT22;7379;51.506;11.876;2022-08-16T08:17:10;22.10;64.30
14585;DHT22;7379;51.506;11.876;2022-08-16T08:19:38;22.10;64.20
14585;DHT22;7379;51.506;11.876;2022-08-16T08:22:06;22.10;64.20
14585;DHT22;7379;51.506;11.876;2022-08-16T08:24:34;22.10;64.20
14585;DHT22;7379;51.506;11.876;2022-08-16T08:27:05;22.10;64.20
14585;DHT22;7379;51.506;11.876;2022-08-16T08:29:35;22.20;64.20
14585;DHT22;7379;51.506;11.876;2022-08-16T08:32:03;22.20;64.20
14585;DHT22;7379;51.506;11.876;2022-08-16T08:34:30;22.20;64.10
14585;DHT22;7379;51.506;11.876;2022-08-16T08:36:58;22.20;64.10
14585;DHT22;7379;51.506;11.876;2022-08-16T08:39:25;22.20;64.20
14585;DHT22;7379;51.506;11.876;2022-08-16T08:41:52;22.20;64.20
14585;DHT22;7379;51.506;11.876;2022-08-16T08:44:19;22.20;64.10
14585;DHT22;7379;51.506;11.876;2022-08-16T08:46:46;22.20;64.10
14585;DHT22;7379;51.506;11.876;2022-08-16T08:49:13;22.20;63.90
14585;DHT22;7379;51.506;11.876;2022-08-16T08:51:40;22.30;64.00
14585;DHT22;7379;51.506;11.876;2022-08-16T08:54:08;22.30;63.70
14585;DHT22;7379;51.506;11.876;2022-08-16T08:56:36;22.30;63.70
14585;DHT22;7379;51.506;11.876;2022-08-16T08:59:03;22.30;63.60
14585;DHT22;7379;51.506;11.876;2022-08-16T09:01:33;22.30;63.60
14585;DHT22;7379;51.506;11.876;2022-08-16T09:04:01;22.40;63.60
14585;DHT22;7379;51.506;11.876;2022-08-16T09:06:29;22.40;63.30
14585;DHT22;7379;51.506;11.876;2022-08-16T09:08:57;22.40;62.80
14585;DHT22;7379;51.506;11.876;2022-08-16T09:11:25;22.40;63.00
14585;DHT22;7379;51.506;11.876;2022-08-16T09:13:52;22.40;62.30
14585;DHT22;7379;51.506;11.876;2022-08-16T09:16:19;22.40;62.30
14585;DHT22;7379;51.506;11.876;2022-08-16T09:18:46;22.50;62.10
14585;DHT22;7379;51.506;11.876;2022-08-16T09:21:13;22.50;61.70
14585;DHT22;7379;51.506;11.876;2022-08-16T09:23:40;22.50;61.10
14585;DHT22;7379;51.506;11.876;2022-08-16T09:26:09;22.50;60.50
14585;DHT22;7379;51.506;11.876;2022-08-16T09:28:38;22.50;60.60
14585;DHT22;7379;51.506;11.876;2022-08-16T09:31:05;22.50;60.30
14585;DHT22;7379;51.506;11.876;2022-08-16T09:33:32;22.60;59.10
14585;DHT22;7379;51.506;11.876;2022-08-16T09:36:00;22.60;59.40
14585;DHT22;7379;51.506;11.876;2022-08-16T09:38:27;22.60;59.30
14585;DHT22;7379;51.506;11.876;2022-08-16T09:40:55;22.70;59.30
14585;DHT22;7379;51.506;11.876;2022-08-16T09:43:22;22.70;59.90
14585;DHT22;7379;51.506;11.876;2022-08-16T09:45:51;22.80;59.80
14585;DHT22;7379;51.506;11.876;2022-08-16T09:48:18;22.80;59.50
14585;DHT22;7379;51.506;11.876;2022-08-16T09:50:45;22.80;59.10
14585;DHT22;7379;51.506;11.876;2022-08-16T09:53:13;22.80;59.00
14585;DHT22;7379;51.506;11.876;2022-08-16T09:55:42;22.90;59.30
14585;DHT22;7379;51.506;11.876;2022-08-16T09:58:09;22.90;59.50
14585;DHT22;7379;51.506;11.876;2022-08-16T10:00:35;22.90;59.60
14585;DHT22;7379;51.506;11.876;2022-08-16T10:03:03;22.90;59.30
14585;DHT22;7379;51.506;11.876;2022-08-16T10:05:31;22.90;59.30
14585;DHT22;7379;51.506;11.876;2022-08-16T10:08:01;22.90;58.70
14585;DHT22;7379;51.506;11.876;2022-08-16T10:10:28;22.90;58.60
14585;DHT22;7379;51.506;11.876;2022-08-16T10:12:55;22.90;59.00
14585;DHT22;7379;51.506;11.876;2022-08-16T10:15:41;22.90;58.60
14585;DHT22;7379;51.506;11.876;2022-08-16T10:18:11;22.90;57.90
14585;DHT22;7379;51.506;11.876;2022-08-16T10:20:40;22.90;57.80
14585;DHT22;7379;51.506;11.876;2022-08-16T10:23:09;22.90;57.80
14585;DHT22;7379;51.506;11.876;2022-08-16T10:25:39;22.90;57.80
14585;DHT22;7379;51.506;11.876;2022-08-16T10:28:06;23.00;58.40
14585;DHT22;7379;51.506;11.876;2022-08-16T10:30:34;23.00;58.30
14585;DHT22;7379;51.506;11.876;2022-08-16T10:33:02;23.00;58.30
14585;DHT22;7379;51.506;11.876;2022-08-16T10:35:31;23.10;58.00
14585;DHT22;7379;51.506;11.876;2022-08-16T10:37:57;23.10;57.40
14585;DHT22;7379;51.506;11.876;2022-08-16T10:40:24;23.10;56.90
14585;DHT22;7379;51.506;11.876;2022-08-16T10:42:51;23.10;57.70
14585;DHT22;7379;51.506;11.876;2022-08-16T10:45:19;23.10;57.80
14585;DHT22;7379;51.506;11.876;2022-08-16T10:47:46;23.10;58.00
14585;DHT22;7379;51.506;11.876;2022-08-16T10:50:14;23.20;58.00
14585;DHT22;7379;51.506;11.876;2022-08-16T10:52:42;23.20;57.80
14585;DHT22;7379;51.506;11.876;2022-08-16T10:55:09;23.30;57.70
14585;DHT22;7379;51.506;11.876;2022-08-16T10:57:37;23.40;57.50
14585;DHT22;7379;51.506;11.876;2022-08-16T11:00:06;23.40;57.50
14585;DHT22;7379;51.506;11.876;2022-08-16T11:02:34;23.50;57.10
14585;DHT22;7379;51.506;11.876;2022-08-16T11:05:03;23.50;57.10
14585;DHT22;7379;51.506;11.876;2022-08-16T11:07:30;23.60;57.50
14585;DHT22;7379;51.506;11.876;2022-08-16T11:09:58;23.60;57.40
14585;DHT22;7379;51.506;11.876;2022-08-16T11:12:26;23.70;57.60
14585;DHT22;7379;51.506;11.876;2022-08-16T11:14:53;23.70;57.60
14585;DHT22;7379;51.506;11.876;2022-08-16T11:17:20;23.70;57.60
14585;DHT22;7379;51.506;11.876;2022-08-16T11:19:47;23.70;56.60
14585;DHT22;7379;51.506;11.876;2022-08-16T11:22:14;23.70;56.60
14585;DHT22;7379;51.506;11.876;2022-08-16T11:24:41;23.80;56.10
14585;DHT22;7379;51.506;11.876;2022-08-16T11:27:12;23.90;56.30
14585;DHT22;7379;51.506;11.876;2022-08-16T11:29:39;23.90;56.30
14585;DHT22;7379;51.506;11.876;2022-08-16T11:32:06;23.90;56.60
14585;DHT22;7379;51.506;11.876;2022-08-16T11:34:32;23.90;56.20
14585;DHT22;7379;51.506;11.876;2022-08-16T11:36:59;23.90;56.10
14585;DHT22;7379;51.506;11.876;2022-08-16T11:39:28;23.90;56.20
14585;DHT22;7379;51.506;11.876;2022-08-16T11:41:55;23.90;56.40
14585;DHT22;7379;51.506;11.876;2022-08-16T11:44:23;24.10;55.80
14585;DHT22;7379;51.506;11.876;2022-08-16T11:46:51;24.10;55.60
14585;DHT22;7379;51.506;11.876;2022-08-16T11:49:17;24.10;55.80
14585;DHT22;7379;51.506;11.876;2022-08-16T11:51:45;24.10;55.60
14585;DHT22;7379;51.506;11.876;2022-08-16T11:54:12;24.10;55.50
14585;DHT22;7379;51.506;11.876;2022-08-16T11:56:39;24.10;56.20
14585;DHT22;7379;51.506;11.876;2022-08-16T11:59:06;24.10;56.20
14585;DHT22;7379;51.506;11.876;2022-08-16T12:01:34;24.10;56.20
14585;DHT22;7379;51.506;11.876;2022-08-16T12:04:01;24.20;55.60
14585;DHT22;7379;51.506;11.876;2022-08-16T12:06:28;24.20;55.40
14585;DHT22;7379;51.506;11.876;2022-08-16T12:08:55;24.20;55.40
14585;DHT22;7379;51.506;11.876;2022-08-16T12:11:23;24.20;55.40
14585;DHT22;7379;51.506;11.876;2022-08-16T12:13:51;24.20;55.20
14585;DHT22;7379;51.506;11.876;2022-08-16T12:16:18;24.30;55.20
14585;DHT22;7379;51.506;11.876;2022-08-16T12:18:46;24.30;55.40
14585;DHT22;7379;51.506;11.876;2022-08-16T12:21:14;24.40;54.80
14585;DHT22;7379;51.506;11.876;2022-08-16T12:23:41;24.50;54.80
14585;DHT22;7379;51.506;11.876;2022-08-16T12:26:08;24.70;54.20
14585;DHT22;7379;51.506;11.876;2022-08-16T12:28:35;24.80;53.90
14585;DHT22;7379;51.506;11.876;2022-08-16T12:31:02;24.90;54.20
14585;DHT22;7379;51.506;11.876;2022-08-16T12:33:29;24.80;54.10
14585;DHT22;7379;51.506;11.876;2022-08-16T12:35:58;24.80;54.30
14585;DHT22;7379;51.506;11.876;2022-08-16T12:38:25;24.80;54.40
14585;DHT22;7379;51.506;11.876;2022-08-16T12:40:52;24.80;54.50
14585;DHT22;7379;51.506;11.876;2022-08-16T12:43:19;25.10;53.00
14585;DHT22;7379;51.506;11.876;2022-08-16T12:45:49;25.30;52.40
14585;DHT22;7379;51.506;11.876;2022-08-16T12:48:21;25.40;52.70
14585;DHT22;7379;51.506;11.876;2022-08-16T12:51:09;25.30;53.20
14585;DHT22;7379;51.506;11.876;2022-08-16T12:53:36;25.10;52.80
14585;DHT22;7379;51.506;11.876;2022-08-16T12:56:03;25.10;52.60
14585;DHT22;7379;51.506;11.876;2022-08-16T12:58:31;25.20;52.60
14585;DHT22;7379;51.506;11.876;2022-08-16T13:00:58;25.30;52.40
14585;DHT22;7379;51.506;11.876;2022-08-16T13:03:25;25.50;51.50
14585;DHT22;7379;51.506;11.876;2022-08-16T13:05:52;25.60;51.80
14585;DHT22;7379;51.506;11.876;2022-08-16T13:08:21;25.50;52.00
14585;DHT22;7379;51.506;11.876;2022-08-16T13:10:49;25.50;52.20
14585;DHT22;7379;51.506;11.876;2022-08-16T13:13:19;25.60;52.20
14585;DHT22;7379;51.506;11.876;2022-08-16T13:15:50;25.80;51.10
14585;DHT22;7379;51.506;11.876;2022-08-16T13:18:18;26.10;50.40
14585;DHT22;7379;51.506;11.876;2022-08-16T13:20:45;26.20;49.80
14585;DHT22;7379;51.506;11.876;2022-08-16T13:23:12;26.30;49.30
14585;DHT22;7379;51.506;11.876;2022-08-16T13:25:42;26.30;48.90
14585;DHT22;7379;51.506;11.876;2022-08-16T13:28:10;26.20;49.50
14585;DHT22;7379;51.506;11.876;2022-08-16T13:30:40;26.10;49.60
14585;DHT22;7379;51.506;11.876;2022-08-16T13:33:09;26.00;49.80
14585;DHT22;7379;51.506;11.876;2022-08-16T13:35:36;26.00;50.40
14585;DHT22;7379;51.506;11.876;2022-08-16T13:38:03;26.10;49.60
14585;DHT22;7379;51.506;11.876;2022-08-16T13:40:30;26.10;49.90
14585;DHT22;7379;51.506;11.876;2022-08-16T13:42:59;26.10;49.60
14585;DHT22;7379;51.506;11.876;2022-08-16T13:45:26;26.00;50.40
14585;DHT22;7379;51.506;11.876;2022-08-16T13:47:52;25.80;51.00
14585;DHT22;7379;51.506;11.876;2022-08-16T13:50:20;25.90;50.80
14585;DHT22;7379;51.506;11.876;2022-08-16T13:52:47;26.30;49.80
14585;DHT22;7379;51.506;11.876;2022-08-16T13:55:13;26.60;48.90
14585;DHT22;7379;51.506;11.876;2022-08-16T13:57:40;26.70;48.50
14585;DHT22;7379;51.506;11.876;2022-08-16T14:00:09;26.80;49.10
14585;DHT22;7379;51.506;11.876;2022-08-16T14:02:37;26.70;49.00
14585;DHT22;7379;51.506;11.876;2022-08-16T14:05:04;27.10;48.00
14585;DHT22;7379;51.506;11.876;2022-08-16T14:07:32;27.50;47.10
14585;DHT22;7379;51.506;11.876;2022-08-16T14:09:59;27.60;46.80
14585;DHT22;7379;51.506;11.876;2022-08-16T14:12:28;27.60;47.20
14585;DHT22;7379;51.506;11.876;2022-08-16T14:14:57;27.80;46.00
14585;DHT22;7379;51.506;11.876;2022-08-16T14:17:26;27.50;47.10
14585;DHT22;7379;51.506;11.876;2022-08-16T14:19:54;27.30;47.90
14585;DHT22;7379;51.506;11.876;2022-08-16T14:22:24;27.00;48.40
14585;DHT22;7379;51.506;11.876;2022-08-16T14:24:54;26.80;48.90
14585;DHT22;7379;51.506;11.876;2022-08-16T14:27:23;27.10;47.40
14585;DHT22;7379;51.506;11.876;2022-08-16T14:29:51;27.00;48.20
14585;DHT22;7379;51.506;11.876;2022-08-16T14:32:19;27.00;48.30
14585;DHT22;7379;51.506;11.876;2022-08-16T14:34:47;27.20;48.10
14585;DHT22;7379;51.506;11.876;2022-08-16T14:37:14;27.60;46.50
14585;DHT22;7379;51.506;11.876;2022-08-16T14:39:41;27.90;46.30
14585;DHT22;7379;51.506;11.876;2022-08-16T14:42:11;27.80;46.40
14585;DHT22;7379;51.506;11.876;2022-08-16T14:44:39;27.80;46.10
14585;DHT22;7379;51.506;11.876;2022-08-16T14:47:06;27.60;47.00
14585;DHT22;7379;51.506;11.876;2022-08-16T14:49:33;27.70;46.50
14585;DHT22;7379;51.506;11.876;2022-08-16T14:52:04;27.60;46.80
14585;DHT22;7379;51.506;11.876;2022-08-16T14:54:32;27.50;46.80
14585;DHT22;7379;51.506;11.876;2022-08-16T14:56:59;27.50;46.70
14585;DHT22;7379;51.506;11.876;2022-08-16T14:59:26;27.50;47.40
14585;DHT22;7379;51.506;11.876;2022-08-16T15:01:53;27.70;47.20
14585;DHT22;7379;51.506;11.876;2022-08-16T15:04:20;27.80;47.00
14585;DHT22;7379;51.506;11.876;2022-08-16T15:06:47;27.80;46.90
14585;DHT22;7379;51.506;11.876;2022-08-16T15:09:16;28.10;46.10
14585;DHT22;7379;51.506;11.876;2022-08-16T15:11:42;28.10;46.40
14585;DHT22;7379;51.506;11.876;2022-08-16T15:14:09;28.00;46.60
14585;DHT22;7379;51.506;11.876;2022-08-16T15:16:36;28.00;46.70
14585;DHT22;7379;51.506;11.876;2022-08-16T15:19:03;28.00;46.70
14585;DHT22;7379;51.506;11.876;2022-08-16T15:21:30;28.00;46.70
14585;DHT22;7379;51.506;11.876;2022-08-16T15:23:58;28.30;45.80
14585;DHT22;7379;51.506;11.876;2022-08-16T15:26:29;28.30;46.20
14585;DHT22;7379;51.506;11.876;2022-08-16T15:28:56;28.30;45.90
14585;DHT22;7379;51.506;11.876;2022-08-16T15:31:25;28.30;46.00
14585;DHT22;7379;51.506;11.876;2022-08-16T15:33:52;28.40;46.00